Terminal Aerodrome Forecast
Issued by NWS

Home | Current Version | Previous Version | Graphics & Text | Print | Product List | Glossary On
Versions: 1 2 3 4 5 6 7 8 9 10 11 12 13 14 15 16 17 18 19 20 21 22 23 24 25 26 27 28 29 30 31 32 33 34 35 36 37 38 39 40 41 42 43 44 45 46 47 48 49 50
626
FTUS43 KGRB 161739
TAFRHI
TAF
KRHI 161739Z 1618/1718 13008KT P6SM SCT035 BKN100
      TEMPO 1618/1620 BKN035
     FM170400 11010KT P6SM -SHRA SCT025 OVC040
      TEMPO 1705/1706 2SM TSRA BR OVC015CB
     FM170600 15008KT 4SM -SHRA BR BKN005 OVC010 WS015/15040KT
      TEMPO 1706/1710 2SM TSRA BR OVC012CB
     FM171600 20007KT 4SM -SHRA BR OVC015
      TEMPO 1716/1718 4SM TSRA BKN015CB=

USA.gov is the U.S. government's official web portal to all federal, state and local government web resources and services.